createdAt,value
2016-07-05T00:00:08.302Z,60.71
2016-07-05T00:01:08.323Z,60.71
2016-07-05T00:02:08.332Z,60.71
2016-07-05T00:03:08.338Z,60.89
2016-07-05T00:04:08.359Z,60.61
2016-07-05T00:05:08.351Z,60.61
2016-07-05T00:06:08.376Z,60.51
2016-07-05T00:07:08.373Z,60.8
2016-07-05T00:08:08.403Z,60.8
2016-07-05T00:09:08.407Z,60.8
2016-07-05T00:10:08.401Z,60.51
2016-07-05T00:11:08.405Z,60.8
2016-07-05T00:12:08.421Z,60.8
2016-07-05T00:13:08.423Z,60.8
2016-07-05T00:14:08.447Z,60.8
2016-07-05T00:15:08.455Z,60.83
2016-07-05T00:16:08.474Z,60.8
2016-07-05T00:17:08.469Z,60.89
2016-07-05T00:18:08.492Z,60.8
2016-07-05T00:19:08.495Z,60.8
2016-07-05T00:20:08.491Z,60.8
2016-07-05T00:21:08.509Z,60.89
2016-07-05T00:22:08.517Z,60.89
2016-07-05T00:23:08.539Z,60.61
2016-07-05T00:24:08.544Z,60.99
2016-07-05T00:25:08.559Z,60.99
2016-07-05T00:26:08.556Z,60.8
2016-07-05T00:27:08.558Z,60.89
2016-07-05T00:28:08.547Z,60.71
2016-07-05T00:29:08.624Z,60.71
2016-07-05T00:30:08.573Z,60.61
2016-07-05T00:31:08.581Z,60.61
2016-07-05T00:32:08.605Z,60.71
2016-07-05T00:33:08.600Z,60.8
2016-07-05T00:34:08.629Z,60.99
2016-07-05T00:35:08.641Z,60.71
2016-07-05T00:36:08.655Z,60.71
2016-07-05T00:37:08.661Z,60.89
2016-07-05T00:38:08.658Z,60.61
2016-07-05T00:39:08.673Z,60.89
2016-07-05T00:40:08.671Z,60.99
2016-07-05T00:41:08.688Z,60.89
2016-07-05T00:42:08.699Z,61.09
2016-07-05T00:43:08.693Z,60.99
2016-07-05T00:44:08.702Z,61.09
2016-07-05T00:45:08.745Z,60.99
2016-07-05T00:46:08.737Z,61.09
2016-07-05T00:47:08.751Z,60.89
2016-07-05T00:48:08.729Z,60.89
2016-07-05T00:49:08.754Z,60.89
2016-07-05T00:50:08.742Z,61.09
2016-07-05T00:51:08.772Z,60.99
2016-07-05T00:52:08.784Z,60.99
2016-07-05T00:53:08.789Z,60.89
2016-07-05T00:54:08.802Z,61.09
2016-07-05T00:55:08.814Z,60.89
2016-07-05T00:56:08.839Z,60.8
2016-07-05T00:57:08.829Z,60.99
2016-07-05T00:58:08.841Z,61.19
2016-07-05T00:59:08.845Z,61.09
2016-07-05T01:00:08.854Z,61.09
2016-07-05T01:01:08.854Z,61.09
2016-07-05T01:02:08.872Z,61.09
2016-07-05T01:03:08.877Z,61.28
2016-07-05T01:04:08.875Z,61.09
2016-07-05T01:05:08.895Z,60.89
2016-07-05T01:06:08.911Z,60.99
2016-07-05T01:07:08.908Z,60.99
2016-07-05T01:08:08.918Z,60.99
2016-07-05T01:09:08.934Z,60.99
2016-07-05T01:10:08.933Z,61.09
2016-07-05T01:11:08.942Z,61.19
2016-07-05T01:12:08.964Z,60.89
2016-07-05T01:13:08.965Z,61.09
2016-07-05T01:14:08.989Z,61.09
2016-07-05T01:15:08.969Z,61.09
2016-07-05T01:16:08.997Z,61.09
2016-07-05T01:17:08.995Z,61.09
2016-07-05T01:18:09.003Z,61.09
2016-07-05T01:19:09.036Z,60.99
2016-07-05T01:20:09.033Z,61.19
2016-07-05T01:21:09.053Z,61.19
2016-07-05T01:22:09.037Z,61.38
2016-07-05T01:23:09.051Z,61.38
2016-07-05T01:24:09.078Z,61.38
2016-07-05T01:25:09.075Z,61.09
2016-07-05T01:26:09.088Z,61.19
2016-07-05T01:27:09.097Z,61.19
2016-07-05T01:28:09.099Z,61.47
2016-07-05T01:29:09.166Z,61.09
2016-07-05T01:30:09.112Z,61.47
2016-07-05T01:31:09.136Z,60.99
2016-07-05T01:32:09.119Z,61.19
2016-07-05T01:33:09.132Z,61.47
2016-07-05T01:34:09.150Z,61.47
2016-07-05T01:35:09.150Z,61.38
2016-07-05T01:36:09.164Z,61.47
2016-07-05T01:37:09.184Z,61.47
2016-07-05T01:38:09.200Z,61.67
2016-07-05T01:39:09.200Z,61.38
2016-07-05T01:40:09.194Z,61.57
2016-07-05T01:41:09.221Z,61.47
2016-07-05T01:42:09.241Z,61.47
2016-07-05T01:43:09.858Z,61.57
2016-07-05T01:44:09.238Z,61.38
2016-07-05T01:45:09.239Z,61.57
2016-07-05T01:46:09.266Z,61.57
2016-07-05T01:47:09.270Z,61.38
2016-07-05T01:48:09.281Z,61.47
2016-07-05T01:49:09.273Z,61.47
2016-07-05T01:50:09.292Z,61.47
2016-07-05T01:51:09.290Z,61.47
2016-07-05T01:52:09.303Z,61.38
2016-07-05T01:53:09.322Z,61.19
2016-07-05T01:54:09.317Z,61.38
2016-07-05T01:55:09.355Z,61.28
2016-07-05T01:56:09.354Z,61.47
2016-07-05T01:57:09.343Z,61.38
2016-07-05T01:58:09.368Z,61.19
2016-07-05T01:59:09.384Z,61.19
2016-07-05T02:00:09.423Z,61.28
2016-07-05T02:01:09.566Z,61.28
2016-07-05T02:02:09.437Z,61.19
2016-07-05T02:03:09.589Z,61.19
2016-07-05T02:04:09.398Z,61.28
2016-07-05T02:05:09.623Z,61.19
2016-07-05T02:06:09.624Z,61.28
2016-07-05T02:07:09.619Z,61.09
2016-07-05T02:08:09.500Z,61.28
2016-07-05T02:09:09.535Z,61.19
2016-07-05T02:10:09.464Z,61.38
2016-07-05T02:11:09.481Z,61.28
2016-07-05T02:12:09.498Z,61.19
2016-07-05T02:13:09.489Z,61.28
2016-07-05T02:14:09.511Z,61.38
2016-07-05T02:15:09.512Z,61.28
2016-07-05T02:16:09.509Z,61.28
2016-07-05T02:17:09.546Z,61.28
2016-07-05T02:18:09.555Z,61.28
2016-07-05T02:19:09.541Z,61.19
2016-07-05T02:20:09.560Z,61.19
2016-07-05T02:21:09.566Z,61.28
2016-07-05T02:22:09.568Z,61.28
2016-07-05T02:23:09.572Z,61.28
2016-07-05T02:24:09.606Z,61.28
2016-07-05T02:25:09.597Z,61.25
2016-07-05T02:26:09.612Z,61.28
2016-07-05T02:27:09.598Z,61.38
2016-07-05T02:28:09.634Z,61.28
2016-07-05T02:29:09.637Z,61.19
2016-07-05T02:30:09.642Z,61.28
2016-07-05T02:31:09.635Z,61.25
2016-07-05T02:32:09.665Z,61.28
2016-07-05T02:33:09.665Z,61.19
2016-07-05T02:34:09.666Z,61.19
2016-07-05T02:35:09.672Z,61.28
2016-07-05T02:36:09.706Z,61.25
2016-07-05T02:37:09.717Z,61.38
2016-07-05T02:38:09.700Z,61.16
2016-07-05T02:39:09.722Z,60.99
2016-07-05T02:40:09.740Z,61.25
2016-07-05T02:41:09.740Z,61.16
2016-07-05T02:42:09.759Z,61.19
2016-07-05T02:43:09.775Z,61.16
2016-07-05T02:44:09.771Z,61.09
2016-07-05T02:45:09.787Z,61.28
2016-07-05T02:46:09.795Z,61.16
2016-07-05T02:47:09.794Z,61.38
2016-07-05T02:48:09.811Z,61.09
2016-07-05T02:49:09.791Z,61.28
2016-07-05T02:50:09.821Z,61.28
2016-07-05T02:51:09.827Z,61.16
2016-07-05T02:52:09.829Z,61.38
2016-07-05T02:53:09.878Z,61.28
2016-07-05T02:54:09.866Z,61.16
2016-07-05T02:55:09.862Z,61.38
2016-07-05T02:56:09.873Z,61.38
2016-07-05T02:57:09.887Z,61.44
2016-07-05T02:58:09.885Z,61.38
2016-07-05T02:59:09.884Z,61.25
2016-07-05T03:00:09.900Z,61.35
2016-07-05T03:01:09.907Z,61.19
2016-07-05T03:02:09.927Z,61.25
2016-07-05T03:03:09.926Z,61.35
2016-07-05T03:04:09.950Z,61.35
2016-07-05T03:05:09.966Z,61.28
2016-07-05T03:06:09.969Z,61.28
2016-07-05T03:07:09.974Z,61.47
2016-07-05T03:08:09.994Z,61.25
2016-07-05T03:09:09.986Z,61.35
2016-07-05T03:10:10.004Z,61.47
2016-07-05T03:11:09.995Z,61.47
2016-07-05T03:12:10.008Z,61.25
2016-07-05T03:13:10.014Z,61.44
2016-07-05T03:14:10.037Z,61.25
2016-07-05T03:15:10.058Z,61.19
2016-07-05T03:16:10.041Z,61.67
2016-07-05T03:17:10.065Z,61.47
2016-07-05T03:18:10.081Z,61.28
2016-07-05T03:19:10.067Z,61.47
2016-07-05T03:20:10.082Z,61.19
2016-07-05T03:21:10.083Z,61.19
2016-07-05T03:22:10.100Z,61.47
2016-07-05T03:23:10.122Z,61.57
2016-07-05T03:24:10.110Z,61.16
2016-07-05T03:25:10.146Z,61.64
2016-07-05T03:26:10.150Z,61.44
2016-07-05T03:27:10.153Z,61.44
2016-07-05T03:28:10.148Z,61.25
2016-07-05T03:29:10.173Z,61.57
2016-07-05T03:30:10.168Z,61.74
2016-07-05T03:31:10.195Z,61.64
2016-07-05T03:32:10.185Z,61.44
2016-07-05T03:33:10.216Z,61.47
2016-07-05T03:34:10.207Z,61.19
2016-07-05T03:35:10.209Z,61.47
2016-07-05T03:36:10.221Z,61.64
2016-07-05T03:37:10.228Z,61.57
2016-07-05T03:38:10.255Z,61.47
2016-07-05T03:39:10.243Z,61.67
2016-07-05T03:40:10.249Z,61.44
2016-07-05T03:41:10.266Z,61.67
2016-07-05T03:42:10.282Z,61.64
2016-07-05T03:43:10.292Z,61.67
2016-07-05T03:44:10.280Z,61.74
2016-07-05T03:45:10.283Z,61.47
2016-07-05T03:46:10.321Z,61.77
2016-07-05T03:47:10.341Z,61.47
2016-07-05T03:48:10.322Z,61.57
2016-07-05T03:49:10.332Z,61.64
2016-07-05T03:50:10.340Z,61.54
2016-07-05T03:51:10.360Z,61.54
2016-07-05T03:52:10.358Z,61.54
2016-07-05T03:53:10.373Z,61.67
2016-07-05T03:54:10.399Z,61.74
2016-07-05T03:55:10.400Z,61.47
2016-07-05T03:56:10.409Z,61.28
2016-07-05T03:57:10.416Z,61.44
2016-07-05T03:58:10.409Z,61.47
2016-07-05T03:59:10.418Z,61.47
2016-07-05T04:00:10.429Z,61.16
2016-07-05T04:01:10.447Z,61.47
2016-07-05T04:02:10.470Z,61.47
2016-07-05T04:03:10.473Z,61.19
2016-07-05T04:04:10.460Z,61.19
2016-07-05T04:05:10.463Z,61.44
2016-07-05T04:06:10.502Z,61.35
2016-07-05T04:07:10.508Z,61.38
2016-07-05T04:08:10.509Z,61.38
2016-07-05T04:09:10.528Z,61.54
2016-07-05T04:10:10.529Z,61.44
2016-07-05T04:11:10.511Z,61.28
2016-07-05T04:12:10.554Z,61.47
2016-07-05T04:13:10.542Z,61.35
2016-07-05T04:14:10.563Z,61.16
2016-07-05T04:15:10.555Z,61.19
2016-07-05T04:16:10.575Z,60.99
2016-07-05T04:17:10.578Z,61.28
2016-07-05T04:18:10.598Z,61.16
2016-07-05T04:19:10.609Z,61.35
2016-07-05T04:20:10.597Z,61.35
2016-07-05T04:21:10.627Z,61.38
2016-07-05T04:22:10.643Z,61.38
2016-07-05T04:23:10.641Z,61.19
2016-07-05T04:24:10.642Z,61.28
2016-07-05T04:25:10.662Z,61.16
2016-07-05T04:26:10.661Z,61.28
2016-07-05T04:27:10.673Z,61.47
2016-07-05T04:28:10.682Z,61.57
2016-07-05T04:29:10.685Z,61.67
2016-07-05T04:30:10.687Z,61.38
2016-07-05T04:31:10.715Z,61.47
2016-07-05T04:32:10.713Z,61.44
2016-07-05T04:33:10.711Z,61.38
2016-07-05T04:34:10.740Z,61.57
2016-07-05T04:35:10.735Z,61.44
2016-07-05T04:36:10.748Z,61.38
2016-07-05T04:37:10.743Z,61.47
2016-07-05T04:38:10.775Z,61.47
2016-07-05T04:39:10.790Z,61.09
2016-07-05T04:40:10.787Z,61.38
2016-07-05T04:41:10.792Z,61.09
2016-07-05T04:42:10.795Z,61.09
2016-07-05T04:43:10.814Z,60.99
2016-07-05T04:44:10.817Z,60.99
2016-07-05T04:45:10.844Z,61.28
2016-07-05T04:46:10.842Z,60.99
2016-07-05T04:47:10.868Z,61.19
2016-07-05T04:48:10.861Z,61.09
2016-07-05T04:49:10.852Z,60.99
2016-07-05T04:50:10.867Z,61.19
2016-07-05T04:51:10.864Z,61.19
2016-07-05T04:52:10.888Z,61.19
2016-07-05T04:53:10.885Z,61.19
2016-07-05T04:54:10.916Z,61.09
2016-07-05T04:55:10.919Z,61.19
2016-07-05T04:56:10.931Z,61.09
2016-07-05T04:57:10.922Z,60.89
2016-07-05T04:58:10.935Z,61.09
2016-07-05T04:59:10.955Z,61.19
2016-07-05T05:00:10.950Z,61.28
2016-07-05T05:01:10.959Z,61.09
2016-07-05T05:02:10.979Z,60.99
2016-07-05T05:03:10.997Z,61.09
2016-07-05T05:04:11.004Z,61.09
2016-07-05T05:05:11.020Z,60.99
2016-07-05T05:06:11.023Z,60.99
2016-07-05T05:07:11.020Z,61.09
2016-07-05T05:08:11.011Z,61.09
2016-07-05T05:09:11.051Z,61.19
2016-07-05T05:10:11.064Z,61.28
2016-07-05T05:11:11.048Z,61.28
2016-07-05T05:12:11.077Z,61.28
2016-07-05T05:13:11.069Z,60.89
2016-07-05T05:14:11.088Z,61.19
2016-07-05T05:15:11.094Z,60.89
2016-07-05T05:16:11.113Z,61.19
2016-07-05T05:17:11.116Z,61.19
2016-07-05T05:18:11.128Z,60.99
2016-07-05T05:19:11.131Z,61.19
2016-07-05T05:20:11.131Z,61.09
2016-07-05T05:21:11.140Z,61.09
2016-07-05T05:22:11.146Z,61.09
2016-07-05T05:23:11.158Z,60.99
2016-07-05T05:24:11.276Z,60.71
2016-07-05T05:25:11.178Z,61.09
2016-07-05T05:26:11.178Z,61.09
2016-07-05T05:27:11.204Z,61.09
2016-07-05T05:28:11.223Z,61.09
2016-07-05T05:29:11.228Z,60.99
2016-07-05T05:30:11.220Z,60.8
2016-07-05T05:31:11.234Z,60.99
2016-07-05T05:32:11.250Z,60.8
2016-07-05T05:33:11.247Z,60.8
2016-07-05T05:34:11.263Z,60.51
2016-07-05T05:35:11.250Z,60.71
2016-07-05T05:36:11.278Z,60.51
2016-07-05T05:37:11.279Z,60.8
2016-07-05T05:38:11.307Z,60.99
2016-07-05T05:39:11.316Z,60.99
2016-07-05T05:40:11.301Z,60.8
2016-07-05T05:41:11.311Z,60.99
2016-07-05T05:42:11.325Z,60.8
2016-07-05T05:43:11.349Z,60.89
2016-07-05T05:44:11.343Z,60.51
2016-07-05T05:45:11.368Z,60.71
2016-07-05T05:46:11.380Z,60.71
2016-07-05T05:47:11.366Z,60.61
2016-07-05T05:48:11.361Z,60.8
2016-07-05T05:49:11.388Z,60.71
2016-07-05T05:50:11.398Z,60.71
2016-07-05T05:51:11.413Z,60.61
2016-07-05T05:52:11.414Z,60.51
2016-07-05T05:53:11.415Z,60.61
2016-07-05T05:54:11.446Z,60.8
2016-07-05T05:55:11.459Z,60.71
2016-07-05T05:56:11.464Z,60.8
2016-07-05T05:57:11.468Z,60.71
2016-07-05T05:58:11.465Z,60.71
2016-07-05T05:59:11.461Z,60.8
2016-07-05T06:00:11.480Z,60.8
2016-07-05T06:01:11.502Z,60.71
2016-07-05T06:02:11.522Z,60.8
2016-07-05T06:03:11.529Z,60.71
2016-07-05T06:04:11.538Z,60.8
2016-07-05T06:05:11.526Z,60.8
2016-07-05T06:06:11.563Z,60.71
2016-07-05T06:07:11.554Z,60.61
2016-07-05T06:08:11.556Z,60.71
2016-07-05T06:09:11.578Z,60.71
2016-07-05T06:10:11.581Z,60.71
2016-07-05T06:11:12.190Z,60.71
2016-07-05T06:12:11.594Z,60.51
2016-07-05T06:13:11.619Z,60.41
2016-07-05T06:14:11.614Z,60.41
2016-07-05T06:15:11.628Z,60.71
2016-07-05T06:16:11.630Z,60.71
2016-07-05T06:17:11.635Z,60.51
2016-07-05T06:18:11.659Z,60.71
2016-07-05T06:19:11.656Z,60.71
2016-07-05T06:20:11.681Z,60.41
2016-07-05T06:21:11.674Z,60.71
2016-07-05T06:22:11.671Z,60.71
2016-07-05T06:23:11.707Z,60.61
2016-07-05T06:24:11.699Z,60.71
2016-07-05T06:25:11.713Z,60.71
2016-07-05T06:26:11.727Z,60.71
2016-07-05T06:27:11.721Z,60.61
2016-07-05T06:28:11.745Z,60.61
2016-07-05T06:29:11.752Z,60.71
2016-07-05T06:30:11.755Z,60.41
2016-07-05T06:31:11.760Z,60.51
2016-07-05T06:32:11.771Z,60.41
2016-07-05T06:33:11.767Z,60.41
2016-07-05T06:34:11.784Z,60.35
2016-07-05T06:35:11.795Z,60.31
2016-07-05T06:36:11.800Z,60.22
2016-07-05T06:37:11.816Z,60.35
2016-07-05T06:38:11.829Z,60.54
2016-07-05T06:39:11.838Z,60.41
2016-07-05T06:40:11.827Z,60.31
2016-07-05T06:41:11.842Z,60.61
2016-07-05T06:42:11.856Z,60.41
2016-07-05T06:43:11.848Z,60.31
2016-07-05T06:44:11.876Z,60.41
2016-07-05T06:45:11.871Z,60.41
2016-07-05T06:46:11.902Z,60.51
2016-07-05T06:47:11.886Z,60.41
2016-07-05T06:48:11.914Z,60.25
2016-07-05T06:49:11.916Z,60.25
2016-07-05T06:50:11.930Z,60.25
2016-07-05T06:51:11.930Z,60.35
2016-07-05T06:52:11.936Z,60.31
2016-07-05T06:53:11.939Z,60.51
2016-07-05T06:54:12.573Z,59.93
2016-07-05T06:55:11.954Z,60.16
2016-07-05T06:56:11.984Z,60.25
2016-07-05T06:57:11.982Z,60.06
2016-07-05T06:58:12.000Z,60.44
2016-07-05T06:59:12.000Z,60.25
2016-07-05T07:00:12.024Z,60.06
2016-07-05T07:01:12.032Z,60.35
2016-07-05T07:02:12.041Z,60.54
2016-07-05T07:03:12.031Z,60.16
2016-07-05T07:04:12.038Z,59.96
2016-07-05T07:05:12.068Z,60.44
2016-07-05T07:06:12.052Z,60.44
2016-07-05T07:07:12.087Z,59.86
2016-07-05T07:08:12.083Z,60.16
2016-07-05T07:09:12.112Z,60.16
2016-07-05T07:10:12.119Z,60.06
2016-07-05T07:11:12.112Z,59.86
2016-07-05T07:12:12.131Z,60.16
2016-07-05T07:13:12.150Z,60.44
2016-07-05T07:14:12.132Z,60.06
2016-07-05T07:15:12.151Z,60.25
2016-07-05T07:16:12.162Z,60.25
2016-07-05T07:17:12.184Z,60.35
2016-07-05T07:18:12.184Z,60.06
2016-07-05T07:19:12.185Z,60.06
2016-07-05T07:20:12.213Z,60.16
2016-07-05T07:21:12.211Z,60.16
2016-07-05T07:22:12.207Z,60.54
2016-07-05T07:23:12.215Z,60.54
2016-07-05T07:24:12.279Z,60.64
2016-07-05T07:25:12.229Z,60.35
2016-07-05T07:26:12.245Z,60.35
2016-07-05T07:27:12.248Z,60.44
2016-07-05T07:28:12.260Z,60.06
2016-07-05T07:29:12.296Z,60.16
2016-07-05T07:30:12.296Z,60.06
2016-07-05T07:31:12.307Z,60.25
2016-07-05T07:32:12.321Z,60.16
2016-07-05T07:33:12.302Z,60.16
2016-07-05T07:34:12.308Z,60.25
2016-07-05T07:35:12.342Z,59.96
2016-07-05T07:36:12.334Z,60.06
2016-07-05T07:37:12.353Z,59.96
2016-07-05T07:38:12.368Z,60.25
2016-07-05T07:39:12.380Z,60.16
2016-07-05T07:40:12.401Z,60.16
2016-07-05T07:41:12.395Z,60.06
2016-07-05T07:42:12.389Z,60.06
2016-07-05T07:43:12.416Z,60.35
2016-07-05T07:44:12.426Z,60.06
2016-07-05T07:45:12.443Z,60.06
2016-07-05T07:46:12.439Z,60.06
2016-07-05T07:47:12.441Z,60.16
2016-07-05T07:48:12.459Z,60.35
2016-07-05T07:49:12.481Z,60.35
2016-07-05T07:50:12.461Z,60.54
2016-07-05T07:51:12.501Z,60.83
2016-07-05T07:52:12.535Z,61.51
2016-07-05T07:53:12.506Z,61.89
2016-07-05T07:54:12.496Z,62.76
2016-07-05T07:55:12.527Z,62.76
2016-07-05T07:56:12.537Z,62.76
2016-07-05T07:57:12.538Z,62.7
2016-07-05T07:58:12.538Z,62.86
2016-07-05T07:59:12.558Z,62.98
2016-07-05T08:00:12.579Z,63.34
2016-07-05T08:01:12.590Z,63.85
2016-07-05T08:02:12.598Z,64.05
2016-07-05T08:03:12.591Z,64.43
2016-07-05T08:04:12.599Z,63.76
2016-07-05T08:05:12.615Z,64.72
2016-07-05T08:06:12.616Z,63.66
2016-07-05T08:07:12.641Z,63.95
2016-07-05T08:08:12.654Z,64.34
2016-07-05T08:09:12.667Z,64.63
2016-07-05T08:10:12.653Z,65.2
2016-07-05T08:11:12.681Z,65.11
2016-07-05T08:12:12.677Z,65.11
2016-07-05T08:13:12.695Z,65.59
2016-07-05T08:14:12.679Z,65.2
2016-07-05T08:15:12.710Z,65.5
2016-07-05T08:16:12.717Z,65.59
2016-07-05T08:17:12.735Z,65.2
2016-07-05T08:18:12.741Z,65.69
2016-07-05T08:19:12.745Z,65.4
2016-07-05T08:20:12.759Z,65.5
2016-07-05T08:21:12.751Z,65.2
2016-07-05T08:22:12.762Z,65.11
2016-07-05T08:23:12.786Z,65.88
2016-07-05T08:24:12.792Z,66.08
2016-07-05T08:25:12.809Z,66.27
2016-07-05T08:26:12.813Z,65.88
2016-07-05T08:27:12.820Z,65.98
2016-07-05T08:28:12.817Z,65.3
2016-07-05T08:29:12.843Z,65.34
2016-07-05T08:30:12.839Z,65.24
2016-07-05T08:31:12.865Z,65.05
2016-07-05T08:32:12.866Z,65.34
2016-07-05T08:33:12.879Z,65.43
2016-07-05T08:34:12.878Z,64.95
2016-07-05T08:35:12.893Z,65.34
2016-07-05T08:36:12.912Z,65.34
2016-07-05T08:37:12.905Z,65.34
2016-07-05T08:38:12.932Z,65.3
2016-07-05T08:39:12.977Z,65.53
2016-07-05T08:40:12.958Z,65.43
2016-07-05T08:41:13.584Z,65.43
2016-07-05T08:42:12.959Z,65.34
2016-07-05T08:43:12.991Z,64.95
2016-07-05T08:44:13.002Z,64.95
2016-07-05T08:45:13.617Z,65.05
2016-07-05T08:46:13.032Z,65.24
2016-07-05T08:47:13.020Z,65.24
2016-07-05T08:48:13.031Z,65.24
2016-07-05T08:49:13.018Z,65.24
2016-07-05T08:50:13.028Z,65.05
2016-07-05T08:51:13.656Z,65.05
2016-07-05T08:52:13.062Z,65.05
2016-07-05T08:53:13.082Z,64.95
2016-07-05T08:54:13.064Z,65.24
2016-07-05T08:55:13.115Z,65.14
2016-07-05T08:56:13.088Z,65.05
2016-07-05T08:57:13.703Z,65.14
2016-07-05T08:58:13.116Z,65.05
2016-07-05T08:59:13.118Z,65.24
2016-07-05T09:00:13.130Z,65.14
2016-07-05T09:01:13.136Z,65.05
2016-07-05T09:02:13.763Z,65.34
2016-07-05T09:03:13.165Z,65.34
2016-07-05T09:04:13.177Z,65.24
2016-07-05T09:05:13.208Z,65.24
2016-07-05T09:06:13.215Z,65.14
2016-07-05T09:07:13.205Z,65.05
2016-07-05T09:08:13.252Z,65.17
2016-07-05T09:09:13.867Z,65.05
2016-07-05T09:10:13.225Z,65.24
2016-07-05T09:11:13.240Z,65.24
2016-07-05T09:12:13.258Z,65.08
2016-07-05T09:13:13.269Z,65.05
2016-07-05T09:14:13.265Z,65.14
2016-07-05T09:15:13.289Z,65.24
2016-07-05T09:16:13.278Z,65.43
2016-07-05T09:17:13.311Z,65.47
2016-07-05T09:18:13.314Z,64.89
2016-07-05T09:19:13.302Z,64.89
2016-07-05T09:20:13.303Z,64.79
2016-07-05T09:21:13.325Z,64.79
2016-07-05T09:22:13.336Z,64.5
2016-07-05T09:23:13.957Z,64.89
2016-07-05T09:24:13.366Z,64.89
2016-07-05T09:25:13.988Z,64.79
2016-07-05T09:26:13.378Z,64.5
2016-07-05T09:27:13.386Z,64.31
2016-07-05T09:28:13.397Z,64.5
2016-07-05T09:29:13.402Z,64.5
2016-07-05T09:30:13.427Z,64.5
2016-07-05T09:31:13.419Z,64.01
2016-07-05T09:32:13.447Z,64.11
2016-07-05T09:33:13.451Z,63.82
2016-07-05T09:34:13.461Z,64.21
2016-07-05T09:35:13.467Z,64.11
2016-07-05T09:36:13.467Z,64.59
2016-07-05T09:37:13.487Z,64.59
2016-07-05T09:38:13.508Z,64.4
2016-07-05T09:39:13.497Z,64.59
2016-07-05T09:40:13.528Z,64.59
2016-07-05T09:41:13.522Z,63.92
2016-07-05T09:42:13.531Z,64.11
2016-07-05T09:43:13.550Z,64.21
2016-07-05T09:44:13.547Z,63.92
2016-07-05T09:45:13.572Z,64.01
2016-07-05T09:46:13.561Z,63.73
2016-07-05T09:47:13.578Z,63.76
2016-07-05T09:48:13.598Z,63.85
2016-07-05T09:49:13.616Z,63.85
2016-07-05T09:50:13.614Z,63.76
2016-07-05T09:51:13.624Z,63.82
2016-07-05T09:52:13.635Z,63.92
2016-07-05T09:53:13.651Z,63.95
2016-07-05T09:54:13.665Z,63.73
2016-07-05T09:55:13.666Z,63.56
2016-07-05T09:56:13.681Z,63.46
2016-07-05T09:57:13.684Z,63.46
2016-07-05T09:58:13.671Z,63.46
2016-07-05T09:59:13.704Z,63.37
2016-07-05T10:00:13.711Z,63.37
2016-07-05T10:01:13.716Z,63.46
2016-07-05T10:02:13.710Z,63.46
2016-07-05T10:03:13.714Z,62.88
2016-07-05T10:04:13.743Z,63.37
2016-07-05T10:05:13.761Z,63.18
2016-07-05T10:06:13.761Z,62.98
2016-07-05T10:07:13.760Z,62.79
2016-07-05T10:08:13.787Z,62.79
2016-07-05T10:09:13.795Z,63.08
2016-07-05T10:10:13.815Z,63.37
2016-07-05T10:11:13.822Z,62.69
2016-07-05T10:12:13.813Z,62.88
2016-07-05T10:13:13.809Z,62.79
2016-07-05T10:14:13.839Z,62.59
2016-07-05T10:15:13.856Z,62.88
2016-07-05T10:16:13.853Z,62.88
2016-07-05T10:17:13.860Z,62.79
2016-07-05T10:18:13.882Z,62.79
2016-07-05T10:19:13.886Z,62.88
2016-07-05T10:20:13.884Z,62.21
2016-07-05T10:21:13.894Z,62.5
2016-07-05T10:22:13.923Z,62.4
2016-07-05T10:23:14.545Z,62.11
2016-07-05T10:24:13.937Z,62.21
2016-07-05T10:25:13.957Z,62.14
2016-07-05T10:26:13.951Z,62.04
2016-07-05T10:27:14.570Z,62.14
2016-07-05T10:28:13.956Z,62.04
2016-07-05T10:29:13.971Z,61.85
2016-07-05T10:30:13.977Z,61.95
2016-07-05T10:31:13.983Z,62.34
2016-07-05T10:32:14.025Z,62.43
2016-07-05T10:33:14.006Z,62.43
2016-07-05T10:34:14.040Z,63.01
2016-07-05T10:35:14.033Z,63.31
2016-07-05T10:36:14.042Z,62.72
2016-07-05T10:37:14.054Z,62.53
2016-07-05T10:38:14.067Z,63.01
2016-07-05T10:39:14.066Z,63.31
2016-07-05T10:40:14.079Z,62.72
2016-07-05T10:41:14.093Z,62.92
2016-07-05T10:42:14.111Z,63.01
2016-07-05T10:43:14.109Z,63.01
2016-07-05T10:44:14.128Z,63.31
2016-07-05T10:45:14.124Z,63.01
2016-07-05T10:46:14.160Z,62.92
2016-07-05T10:47:14.136Z,62.82
2016-07-05T10:48:14.176Z,63.01
2016-07-05T10:49:14.159Z,63.01
2016-07-05T10:50:14.193Z,62.72
2016-07-05T10:51:14.188Z,62.92
2016-07-05T10:52:14.212Z,62.82
2016-07-05T10:53:14.222Z,63.01
2016-07-05T10:54:14.211Z,62.92
2016-07-05T10:55:14.226Z,63.01
2016-07-05T10:56:14.242Z,62.72
2016-07-05T10:57:14.248Z,63.04
2016-07-05T10:58:14.258Z,63.21
2016-07-05T10:59:14.279Z,63.01
2016-07-05T11:00:14.271Z,62.63
2016-07-05T11:01:14.308Z,62.82
2016-07-05T11:02:14.310Z,62.82
2016-07-05T11:03:14.312Z,62.82
2016-07-05T11:04:14.329Z,63.31
2016-07-05T11:05:14.333Z,63.11
2016-07-05T11:06:14.340Z,63.01
2016-07-05T11:07:14.968Z,63.34
2016-07-05T11:08:14.365Z,62.82
2016-07-05T11:09:14.375Z,62.72
2016-07-05T11:10:14.368Z,63.11
2016-07-05T11:11:14.375Z,63.79
2016-07-05T11:12:14.395Z,63.4
2016-07-05T11:13:14.412Z,62.82
2016-07-05T11:14:14.416Z,63.11
2016-07-05T11:15:14.422Z,62.63
2016-07-05T11:16:15.029Z,63.21
2016-07-05T11:17:14.434Z,62.95
2016-07-05T11:18:14.445Z,62.82
2016-07-05T11:19:14.458Z,62.72
2016-07-05T11:20:14.481Z,63.21
2016-07-05T11:21:14.470Z,63.34
2016-07-05T11:22:14.488Z,63.34
2016-07-05T11:23:14.493Z,62.95
2016-07-05T11:24:14.523Z,62.85
2016-07-05T11:25:14.515Z,62.75
2016-07-05T11:26:14.524Z,62.85
2016-07-05T11:27:14.547Z,62.85
2016-07-05T11:28:14.557Z,63.04
2016-07-05T11:29:14.557Z,63.04
2016-07-05T11:30:14.574Z,62.85
2016-07-05T11:31:14.581Z,62.56
2016-07-05T11:32:14.601Z,62.75
2016-07-05T11:33:14.625Z,62.85
2016-07-05T11:34:14.603Z,62.75
2016-07-05T11:35:14.615Z,62.95
2016-07-05T11:36:14.617Z,62.85
2016-07-05T11:37:14.623Z,62.75
2016-07-05T11:38:14.652Z,62.85
2016-07-05T11:39:14.656Z,62.46
2016-07-05T11:40:14.682Z,62.85
2016-07-05T11:41:14.697Z,62.56
2016-07-05T11:42:14.685Z,62.66
2016-07-05T11:43:14.704Z,62.46
2016-07-05T11:44:14.704Z,62.46
2016-07-05T11:45:14.716Z,62.85
2016-07-05T11:46:14.727Z,62.75
2016-07-05T11:47:14.727Z,62.66
2016-07-05T11:48:14.757Z,63.43
2016-07-05T11:49:14.767Z,63.04
2016-07-05T11:50:14.754Z,62.95
2016-07-05T11:51:14.768Z,62.85
2016-07-05T11:52:14.798Z,62.85
2016-07-05T11:53:14.799Z,62.95
2016-07-05T11:54:14.806Z,63.04
2016-07-05T11:55:14.817Z,62.56
2016-07-05T11:56:14.816Z,62.75
2016-07-05T11:57:14.821Z,63.04
2016-07-05T11:58:14.842Z,63.04
2016-07-05T11:59:14.864Z,62.85
2016-07-05T12:00:14.848Z,62.95
2016-07-05T12:01:14.861Z,62.75
2016-07-05T12:02:14.879Z,62.56
2016-07-05T12:03:14.907Z,62.85
2016-07-05T12:04:14.903Z,62.95
2016-07-05T12:05:14.905Z,62.85
2016-07-05T12:06:14.915Z,62.95
2016-07-05T12:07:14.921Z,62.66
2016-07-05T12:08:14.939Z,62.95
2016-07-05T12:09:14.962Z,63.14
2016-07-05T12:10:14.960Z,62.66
2016-07-05T12:11:14.970Z,63.04
2016-07-05T12:12:14.972Z,62.75
2016-07-05T12:13:15.013Z,63.37
2016-07-05T12:14:14.992Z,63.04
2016-07-05T12:15:15.012Z,63.14
2016-07-05T12:16:15.031Z,62.85
2016-07-05T12:17:15.033Z,62.85
2016-07-05T12:18:15.051Z,62.46
2016-07-05T12:19:15.048Z,63.04
2016-07-05T12:20:15.057Z,62.75
2016-07-05T12:21:15.061Z,62.75
2016-07-05T12:22:15.069Z,63.34
2016-07-05T12:23:15.092Z,63.14
2016-07-05T12:24:15.092Z,62.85
2016-07-05T12:25:15.097Z,62.75
2016-07-05T12:26:15.116Z,62.85
2016-07-05T12:27:15.146Z,62.79
2016-07-05T12:28:15.135Z,62.79
2016-07-05T12:29:15.143Z,62.59
2016-07-05T12:30:15.143Z,62.79
2016-07-05T12:31:15.174Z,62.46
2016-07-05T12:32:15.179Z,62.27
2016-07-05T12:33:15.181Z,62.66
2016-07-05T12:34:15.187Z,62.85
2016-07-05T12:35:15.209Z,62.95
2016-07-05T12:36:15.219Z,62.85
2016-07-05T12:37:15.226Z,62.85
2016-07-05T12:38:15.238Z,62.85
2016-07-05T12:39:15.249Z,62.95
2016-07-05T12:40:15.235Z,62.95
2016-07-05T12:41:15.248Z,62.49
2016-07-05T12:42:15.266Z,62.1
2016-07-05T12:43:15.289Z,62.3
2016-07-05T12:44:15.310Z,62.07
2016-07-05T12:45:15.308Z,62.46
2016-07-05T12:46:15.317Z,62.07
2016-07-05T12:47:15.320Z,61.98
2016-07-05T12:48:15.330Z,62.1
2016-07-05T12:49:15.344Z,61.82
2016-07-05T12:50:15.354Z,62.1
2016-07-05T12:51:15.353Z,62.3
2016-07-05T12:52:15.360Z,62.2
2016-07-05T12:53:15.374Z,62.4
2016-07-05T12:54:15.402Z,62.17